Harrisburg, New York
Current Conditions -  °F | °C
As of 8:58 AM on Thursday 29 Jan 2015 (Local Time) from KGTB Reporting Station
Broken Clouds Broken Clouds  
Wind Chill: -8°   Ceiling: 19000
Heat Index:   Visibility: 10mi
Dew Point: -6°   Wind: 12mph
Humidity: 54%   Direction: 150°SSE
Pressure: 30.13"   Gusts: NA
Location:  43.7565°N, 75.5938°W
Report Text: KGTB 291358Z AUTO 15010KT 10SM FEW160 BKN190 M14/M21 A3013 RMK AO2 SNB1303E1312 SLP220 P0000 T11371212
Loading
Personal Weather Stations






























Interactive Weather Map New forecast layout! Learn more

10-Day Weather Forecast

Advertisements
Track Severe Weather on mobile